sensor_id;sensor_type;location;lat;lon;timestamp;P1;durP1;ratioP1;P2;durP2;ratioP2
7977;SDS011;4034;48.004;10.902;2023-02-23T00:00:46;16.27;;;12.17;;
7977;SDS011;4034;48.004;10.902;2023-02-23T00:03:12;18.43;;;13.20;;
7977;SDS011;4034;48.004;10.902;2023-02-23T00:05:38;22.23;;;14.20;;
7977;SDS011;4034;48.004;10.902;2023-02-23T00:08:04;19.80;;;14.77;;
7977;SDS011;4034;48.004;10.902;2023-02-23T00:10:30;15.17;;;12.63;;
7977;SDS011;4034;48.004;10.902;2023-02-23T00:12:57;16.00;;;13.07;;
7977;SDS011;4034;48.004;10.902;2023-02-23T00:15:24;15.73;;;11.30;;
7977;SDS011;4034;48.004;10.902;2023-02-23T00:17:54;15.43;;;12.43;;
7977;SDS011;4034;48.004;10.902;2023-02-23T00:20:21;17.43;;;12.63;;
7977;SDS011;4034;48.004;10.902;2023-02-23T00:22:52;16.70;;;13.97;;
7977;SDS011;4034;48.004;10.902;2023-02-23T00:25:18;17.60;;;13.43;;
7977;SDS011;4034;48.004;10.902;2023-02-23T00:27:44;21.90;;;14.60;;
7977;SDS011;4034;48.004;10.902;2023-02-23T00:30:11;21.03;;;14.30;;
7977;SDS011;4034;48.004;10.902;2023-02-23T00:32:37;16.57;;;13.87;;
7977;SDS011;4034;48.004;10.902;2023-02-23T00:35:03;15.70;;;13.60;;
7977;SDS011;4034;48.004;10.902;2023-02-23T00:37:35;18.07;;;13.27;;
7977;SDS011;4034;48.004;10.902;2023-02-23T00:40:02;19.20;;;14.47;;
7977;SDS011;4034;48.004;10.902;2023-02-23T00:42:35;19.93;;;13.60;;
7977;SDS011;4034;48.004;10.902;2023-02-23T00:45:01;16.07;;;13.10;;
7977;SDS011;4034;48.004;10.902;2023-02-23T00:47:32;17.33;;;13.37;;
7977;SDS011;4034;48.004;10.902;2023-02-23T00:50:00;18.70;;;14.00;;
7977;SDS011;4034;48.004;10.902;2023-02-23T00:52:26;17.07;;;14.00;;
7977;SDS011;4034;48.004;10.902;2023-02-23T00:54:52;17.50;;;14.00;;
7977;SDS011;4034;48.004;10.902;2023-02-23T00:57:20;17.60;;;13.23;;
7977;SDS011;4034;48.004;10.902;2023-02-23T00:59:46;16.77;;;13.90;;
7977;SDS011;4034;48.004;10.902;2023-02-23T01:02:12;20.10;;;14.33;;
7977;SDS011;4034;48.004;10.902;2023-02-23T01:04:38;17.83;;;13.73;;
7977;SDS011;4034;48.004;10.902;2023-02-23T01:07:04;18.43;;;13.67;;
7977;SDS011;4034;48.004;10.902;2023-02-23T01:09:30;21.03;;;13.50;;
7977;SDS011;4034;48.004;10.902;2023-02-23T01:11:56;21.30;;;14.20;;
7977;SDS011;4034;48.004;10.902;2023-02-23T01:14:25;19.87;;;13.20;;
7977;SDS011;4034;48.004;10.902;2023-02-23T01:16:51;21.13;;;13.87;;
7977;SDS011;4034;48.004;10.902;2023-02-23T01:19:17;18.97;;;13.87;;
7977;SDS011;4034;48.004;10.902;2023-02-23T01:21:43;18.13;;;13.40;;
7977;SDS011;4034;48.004;10.902;2023-02-23T01:24:09;18.43;;;13.60;;
7977;SDS011;4034;48.004;10.902;2023-02-23T01:26:39;18.27;;;13.73;;
7977;SDS011;4034;48.004;10.902;2023-02-23T01:29:07;17.77;;;12.37;;
7977;SDS011;4034;48.004;10.902;2023-02-23T01:31:33;19.63;;;14.00;;
7977;SDS011;4034;48.004;10.902;2023-02-23T01:33:59;16.27;;;13.03;;
7977;SDS011;4034;48.004;10.902;2023-02-23T01:36:26;14.40;;;12.40;;
7977;SDS011;4034;48.004;10.902;2023-02-23T01:38:55;17.43;;;12.53;;
7977;SDS011;4034;48.004;10.902;2023-02-23T01:41:24;16.03;;;11.23;;
7977;SDS011;4034;48.004;10.902;2023-02-23T01:46:36;16.43;;;12.23;;
7977;SDS011;4034;48.004;10.902;2023-02-23T01:49:03;13.23;;;11.90;;
7977;SDS011;4034;48.004;10.902;2023-02-23T01:51:36;15.97;;;13.37;;
7977;SDS011;4034;48.004;10.902;2023-02-23T01:54:09;17.50;;;13.70;;
7977;SDS011;4034;48.004;10.902;2023-02-23T01:56:39;17.50;;;13.23;;
7977;SDS011;4034;48.004;10.902;2023-02-23T01:59:07;19.67;;;14.13;;
7977;SDS011;4034;48.004;10.902;2023-02-23T02:01:36;18.87;;;14.27;;
7977;SDS011;4034;48.004;10.902;2023-02-23T02:04:04;16.30;;;13.67;;
7977;SDS011;4034;48.004;10.902;2023-02-23T02:06:31;18.03;;;13.13;;
7977;SDS011;4034;48.004;10.902;2023-02-23T02:09:06;17.13;;;12.70;;
7977;SDS011;4034;48.004;10.902;2023-02-23T02:11:34;20.47;;;13.80;;
7977;SDS011;4034;48.004;10.902;2023-02-23T02:14:11;16.80;;;13.30;;
7977;SDS011;4034;48.004;10.902;2023-02-23T02:16:40;17.60;;;14.00;;
7977;SDS011;4034;48.004;10.902;2023-02-23T02:19:28;19.50;;;15.20;;
7977;SDS011;4034;48.004;10.902;2023-02-23T02:27:39;17.93;;;13.63;;
7977;SDS011;4034;48.004;10.902;2023-02-23T02:32:43;21.03;;;14.83;;
7977;SDS011;4034;48.004;10.902;2023-02-23T02:40:50;15.67;;;12.33;;
7977;SDS011;4034;48.004;10.902;2023-02-23T02:50:42;19.90;;;14.80;;
7977;SDS011;4034;48.004;10.902;2023-02-23T02:53:10;20.60;;;14.90;;
7977;SDS011;4034;48.004;10.902;2023-02-23T02:55:39;19.47;;;14.93;;
7977;SDS011;4034;48.004;10.902;2023-02-23T02:58:08;17.50;;;13.60;;
7977;SDS011;4034;48.004;10.902;2023-02-23T03:01:04;23.23;;;16.47;;
7977;SDS011;4034;48.004;10.902;2023-02-23T03:03:41;24.07;;;16.70;;
7977;SDS011;4034;48.004;10.902;2023-02-23T03:06:31;21.63;;;15.63;;
7977;SDS011;4034;48.004;10.902;2023-02-23T03:12:26;18.00;;;14.77;;
7977;SDS011;4034;48.004;10.902;2023-02-23T03:21:24;21.70;;;16.43;;
7977;SDS011;4034;48.004;10.902;2023-02-23T03:24:29;26.57;;;17.13;;
7977;SDS011;4034;48.004;10.902;2023-02-23T03:27:24;27.37;;;16.83;;
7977;SDS011;4034;48.004;10.902;2023-02-23T03:30:18;20.93;;;15.70;;
7977;SDS011;4034;48.004;10.902;2023-02-23T03:33:07;22.80;;;16.77;;
7977;SDS011;4034;48.004;10.902;2023-02-23T03:36:05;26.87;;;15.57;;
7977;SDS011;4034;48.004;10.902;2023-02-23T03:39:03;24.70;;;15.50;;
7977;SDS011;4034;48.004;10.902;2023-02-23T03:41:51;22.23;;;15.17;;
7977;SDS011;4034;48.004;10.902;2023-02-23T03:44:38;24.13;;;16.00;;
7977;SDS011;4034;48.004;10.902;2023-02-23T03:47:26;24.03;;;17.63;;
7977;SDS011;4034;48.004;10.902;2023-02-23T03:50:17;26.60;;;16.07;;
7977;SDS011;4034;48.004;10.902;2023-02-23T03:53:03;20.27;;;15.37;;
7977;SDS011;4034;48.004;10.902;2023-02-23T03:55:50;20.77;;;15.77;;
7977;SDS011;4034;48.004;10.902;2023-02-23T03:58:37;23.87;;;16.50;;
7977;SDS011;4034;48.004;10.902;2023-02-23T04:01:23;21.83;;;16.33;;
7977;SDS011;4034;48.004;10.902;2023-02-23T04:04:08;20.97;;;14.83;;
7977;SDS011;4034;48.004;10.902;2023-02-23T04:06:53;23.13;;;16.13;;
7977;SDS011;4034;48.004;10.902;2023-02-23T04:09:39;24.60;;;16.77;;
7977;SDS011;4034;48.004;10.902;2023-02-23T04:12:26;25.63;;;17.13;;
7977;SDS011;4034;48.004;10.902;2023-02-23T04:15:36;27.47;;;17.20;;
7977;SDS011;4034;48.004;10.902;2023-02-23T04:18:04;26.00;;;18.47;;
7977;SDS011;4034;48.004;10.902;2023-02-23T04:20:30;22.50;;;15.53;;
7977;SDS011;4034;48.004;10.902;2023-02-23T04:22:56;23.80;;;16.80;;
7977;SDS011;4034;48.004;10.902;2023-02-23T04:25:22;23.40;;;15.50;;
7977;SDS011;4034;48.004;10.902;2023-02-23T04:27:49;28.17;;;17.20;;
7977;SDS011;4034;48.004;10.902;2023-02-23T04:30:15;21.57;;;16.53;;
7977;SDS011;4034;48.004;10.902;2023-02-23T04:32:41;23.17;;;15.90;;
7977;SDS011;4034;48.004;10.902;2023-02-23T04:35:10;22.50;;;16.03;;
7977;SDS011;4034;48.004;10.902;2023-02-23T04:37:36;23.83;;;16.07;;
7977;SDS011;4034;48.004;10.902;2023-02-23T04:40:02;22.63;;;16.97;;
7977;SDS011;4034;48.004;10.902;2023-02-23T04:42:29;25.67;;;16.40;;
7977;SDS011;4034;48.004;10.902;2023-02-23T04:44:55;21.33;;;16.93;;
7977;SDS011;4034;48.004;10.902;2023-02-23T04:47:21;25.80;;;16.93;;
7977;SDS011;4034;48.004;10.902;2023-02-23T04:49:47;19.60;;;14.47;;
7977;SDS011;4034;48.004;10.902;2023-02-23T04:52:13;22.10;;;15.30;;
7977;SDS011;4034;48.004;10.902;2023-02-23T04:54:39;22.47;;;17.00;;
7977;SDS011;4034;48.004;10.902;2023-02-23T04:57:05;22.90;;;15.87;;
7977;SDS011;4034;48.004;10.902;2023-02-23T04:59:32;20.97;;;15.47;;
7977;SDS011;4034;48.004;10.902;2023-02-23T05:01:58;22.87;;;15.27;;
7977;SDS011;4034;48.004;10.902;2023-02-23T05:04:24;20.63;;;15.47;;
7977;SDS011;4034;48.004;10.902;2023-02-23T05:06:50;22.20;;;15.53;;
7977;SDS011;4034;48.004;10.902;2023-02-23T05:09:17;20.97;;;15.03;;
7977;SDS011;4034;48.004;10.902;2023-02-23T05:11:43;19.33;;;15.37;;
7977;SDS011;4034;48.004;10.902;2023-02-23T05:14:09;21.97;;;15.03;;
7977;SDS011;4034;48.004;10.902;2023-02-23T05:16:36;20.13;;;15.53;;
7977;SDS011;4034;48.004;10.902;2023-02-23T05:19:02;22.07;;;15.30;;
7977;SDS011;4034;48.004;10.902;2023-02-23T05:21:28;23.70;;;16.50;;
7977;SDS011;4034;48.004;10.902;2023-02-23T05:23:54;23.37;;;14.87;;
7977;SDS011;4034;48.004;10.902;2023-02-23T05:26:21;23.27;;;14.90;;
7977;SDS011;4034;48.004;10.902;2023-02-23T05:28:47;17.43;;;14.47;;
7977;SDS011;4034;48.004;10.902;2023-02-23T05:31:13;18.23;;;13.80;;
7977;SDS011;4034;48.004;10.902;2023-02-23T05:33:39;16.13;;;13.30;;
7977;SDS011;4034;48.004;10.902;2023-02-23T05:36:13;23.03;;;16.10;;
7977;SDS011;4034;48.004;10.902;2023-02-23T05:38:40;20.27;;;15.10;;
7977;SDS011;4034;48.004;10.902;2023-02-23T05:41:07;20.83;;;14.43;;
7977;SDS011;4034;48.004;10.902;2023-02-23T05:46:23;22.70;;;14.40;;
7977;SDS011;4034;48.004;10.902;2023-02-23T05:48:50;22.70;;;15.17;;
7977;SDS011;4034;48.004;10.902;2023-02-23T05:51:16;18.90;;;14.65;;
7977;SDS011;4034;48.004;10.902;2023-02-23T05:53:43;25.03;;;16.67;;
7977;SDS011;4034;48.004;10.902;2023-02-23T05:56:11;21.20;;;15.30;;
7977;SDS011;4034;48.004;10.902;2023-02-23T05:58:37;22.37;;;15.27;;
7977;SDS011;4034;48.004;10.902;2023-02-23T06:01:03;24.17;;;17.20;;
7977;SDS011;4034;48.004;10.902;2023-02-23T06:03:29;23.50;;;16.57;;
7977;SDS011;4034;48.004;10.902;2023-02-23T06:05:56;25.27;;;16.77;;
7977;SDS011;4034;48.004;10.902;2023-02-23T06:08:23;21.77;;;17.30;;
7977;SDS011;4034;48.004;10.902;2023-02-23T06:10:56;24.47;;;15.13;;
7977;SDS011;4034;48.004;10.902;2023-02-23T06:13:22;22.00;;;18.73;;
7977;SDS011;4034;48.004;10.902;2023-02-23T06:15:48;25.80;;;16.70;;
7977;SDS011;4034;48.004;10.902;2023-02-23T06:18:14;25.23;;;17.70;;
7977;SDS011;4034;48.004;10.902;2023-02-23T06:20:41;25.10;;;17.97;;
7977;SDS011;4034;48.004;10.902;2023-02-23T06:23:07;24.77;;;17.53;;
7977;SDS011;4034;48.004;10.902;2023-02-23T06:25:35;24.90;;;17.50;;
7977;SDS011;4034;48.004;10.902;2023-02-23T06:28:02;25.23;;;17.10;;
7977;SDS011;4034;48.004;10.902;2023-02-23T06:30:28;21.50;;;16.97;;
7977;SDS011;4034;48.004;10.902;2023-02-23T06:35:24;22.13;;;17.70;;
7977;SDS011;4034;48.004;10.902;2023-02-23T06:37:51;24.17;;;16.77;;
7977;SDS011;4034;48.004;10.902;2023-02-23T06:40:17;27.40;;;17.57;;
7977;SDS011;4034;48.004;10.902;2023-02-23T06:42:43;23.20;;;17.43;;
7977;SDS011;4034;48.004;10.902;2023-02-23T06:45:10;19.80;;;16.33;;
7977;SDS011;4034;48.004;10.902;2023-02-23T06:47:37;23.93;;;17.57;;
7977;SDS011;4034;48.004;10.902;2023-02-23T06:50:04;22.20;;;16.20;;
7977;SDS011;4034;48.004;10.902;2023-02-23T06:52:30;24.67;;;16.83;;
7977;SDS011;4034;48.004;10.902;2023-02-23T06:54:57;20.47;;;15.03;;
7977;SDS011;4034;48.004;10.902;2023-02-23T06:57:23;26.27;;;16.87;;
7977;SDS011;4034;48.004;10.902;2023-02-23T06:59:49;21.07;;;17.03;;
7977;SDS011;4034;48.004;10.902;2023-02-23T07:02:15;18.00;;;15.10;;
7977;SDS011;4034;48.004;10.902;2023-02-23T07:04:41;23.87;;;16.20;;
7977;SDS011;4034;48.004;10.902;2023-02-23T07:07:07;20.37;;;16.03;;
7977;SDS011;4034;48.004;10.902;2023-02-23T07:09:33;21.80;;;16.93;;
7977;SDS011;4034;48.004;10.902;2023-02-23T07:11:59;19.17;;;15.30;;
7977;SDS011;4034;48.004;10.902;2023-02-23T07:14:26;20.53;;;14.77;;
7977;SDS011;4034;48.004;10.902;2023-02-23T07:16:52;22.97;;;15.33;;
7977;SDS011;4034;48.004;10.902;2023-02-23T07:19:18;17.73;;;14.27;;
7977;SDS011;4034;48.004;10.902;2023-02-23T07:21:44;18.80;;;13.63;;
7977;SDS011;4034;48.004;10.902;2023-02-23T07:24:10;17.97;;;14.70;;
7977;SDS011;4034;48.004;10.902;2023-02-23T07:29:19;18.23;;;13.60;;
7977;SDS011;4034;48.004;10.902;2023-02-23T07:31:48;17.10;;;12.87;;
7977;SDS011;4034;48.004;10.902;2023-02-23T07:34:14;17.30;;;12.63;;
7977;SDS011;4034;48.004;10.902;2023-02-23T07:36:40;17.27;;;12.77;;
7977;SDS011;4034;48.004;10.902;2023-02-23T07:39:06;22.83;;;13.17;;
7977;SDS011;4034;48.004;10.902;2023-02-23T07:41:32;14.83;;;12.27;;
7977;SDS011;4034;48.004;10.902;2023-02-23T07:43:58;14.83;;;12.07;;
7977;SDS011;4034;48.004;10.902;2023-02-23T07:46:24;17.77;;;12.77;;
7977;SDS011;4034;48.004;10.902;2023-02-23T07:48:51;20.30;;;13.60;;
7977;SDS011;4034;48.004;10.902;2023-02-23T07:51:17;16.17;;;12.87;;
7977;SDS011;4034;48.004;10.902;2023-02-23T07:53:43;13.73;;;11.57;;
7977;SDS011;4034;48.004;10.902;2023-02-23T07:56:09;14.17;;;12.67;;
7977;SDS011;4034;48.004;10.902;2023-02-23T07:58:42;14.23;;;10.83;;
7977;SDS011;4034;48.004;10.902;2023-02-23T08:01:09;18.00;;;11.17;;
7977;SDS011;4034;48.004;10.902;2023-02-23T08:03:35;11.80;;;10.57;;
7977;SDS011;4034;48.004;10.902;2023-02-23T08:06:01;15.37;;;11.87;;
7977;SDS011;4034;48.004;10.902;2023-02-23T08:08:27;13.93;;;11.80;;
7977;SDS011;4034;48.004;10.902;2023-02-23T08:11:00;13.83;;;11.70;;
7977;SDS011;4034;48.004;10.902;2023-02-23T08:13:26;13.27;;;10.23;;
7977;SDS011;4034;48.004;10.902;2023-02-23T08:15:52;13.27;;;11.03;;
7977;SDS011;4034;48.004;10.902;2023-02-23T08:18:18;13.17;;;11.27;;
7977;SDS011;4034;48.004;10.902;2023-02-23T08:20:44;16.77;;;12.20;;
7977;SDS011;4034;48.004;10.902;2023-02-23T08:23:10;14.23;;;10.97;;
7977;SDS011;4034;48.004;10.902;2023-02-23T08:25:36;13.97;;;11.43;;
7977;SDS011;4034;48.004;10.902;2023-02-23T08:28:02;11.53;;;9.67;;
7977;SDS011;4034;48.004;10.902;2023-02-23T08:30:31;14.93;;;10.23;;
7977;SDS011;4034;48.004;10.902;2023-02-23T08:32:57;13.30;;;10.33;;
7977;SDS011;4034;48.004;10.902;2023-02-23T08:35:23;11.80;;;9.43;;
7977;SDS011;4034;48.004;10.902;2023-02-23T08:37:49;9.70;;;8.63;;
7977;SDS011;4034;48.004;10.902;2023-02-23T08:40:16;14.57;;;8.50;;
7977;SDS011;4034;48.004;10.902;2023-02-23T08:42:43;10.33;;;8.20;;
7977;SDS011;4034;48.004;10.902;2023-02-23T08:45:09;10.13;;;7.53;;
7977;SDS011;4034;48.004;10.902;2023-02-23T08:47:36;10.30;;;7.57;;
7977;SDS011;4034;48.004;10.902;2023-02-23T08:50:02;9.40;;;6.97;;
7977;SDS011;4034;48.004;10.902;2023-02-23T08:52:29;9.07;;;7.90;;
7977;SDS011;4034;48.004;10.902;2023-02-23T08:54:55;9.43;;;7.40;;
7977;SDS011;4034;48.004;10.902;2023-02-23T08:57:21;7.70;;;6.73;;
7977;SDS011;4034;48.004;10.902;2023-02-23T08:59:47;9.67;;;7.43;;
7977;SDS011;4034;48.004;10.902;2023-02-23T09:02:14;7.57;;;6.77;;
7977;SDS011;4034;48.004;10.902;2023-02-23T09:04:40;8.47;;;7.43;;
7977;SDS011;4034;48.004;10.902;2023-02-23T09:07:07;8.00;;;5.90;;
7977;SDS011;4034;48.004;10.902;2023-02-23T09:09:33;7.87;;;6.73;;
7977;SDS011;4034;48.004;10.902;2023-02-23T09:11:59;8.93;;;7.10;;
7977;SDS011;4034;48.004;10.902;2023-02-23T09:14:25;7.40;;;5.50;;
7977;SDS011;4034;48.004;10.902;2023-02-23T09:16:52;10.53;;;7.43;;
7977;SDS011;4034;48.004;10.902;2023-02-23T09:19:18;9.03;;;7.73;;
7977;SDS011;4034;48.004;10.902;2023-02-23T09:21:44;10.60;;;8.83;;
7977;SDS011;4034;48.004;10.902;2023-02-23T09:24:10;8.60;;;7.70;;
7977;SDS011;4034;48.004;10.902;2023-02-23T09:26:36;8.47;;;7.10;;
7977;SDS011;4034;48.004;10.902;2023-02-23T09:29:04;8.37;;;7.50;;
7977;SDS011;4034;48.004;10.902;2023-02-23T09:31:31;9.87;;;6.73;;
7977;SDS011;4034;48.004;10.902;2023-02-23T09:33:57;7.43;;;6.60;;
7977;SDS011;4034;48.004;10.902;2023-02-23T09:36:27;9.47;;;6.47;;
7977;SDS011;4034;48.004;10.902;2023-02-23T09:38:53;5.97;;;5.37;;
7977;SDS011;4034;48.004;10.902;2023-02-23T09:48:42;6.77;;;3.23;;
7977;SDS011;4034;48.004;10.902;2023-02-23T09:51:10;3.63;;;3.30;;
7977;SDS011;4034;48.004;10.902;2023-02-23T09:54:01;3.60;;;3.27;;
7977;SDS011;4034;48.004;10.902;2023-02-23T09:56:29;5.77;;;2.80;;
7977;SDS011;4034;48.004;10.902;2023-02-23T09:58:57;3.27;;;3.03;;
7977;SDS011;4034;48.004;10.902;2023-02-23T10:04:21;3.10;;;2.90;;
7977;SDS011;4034;48.004;10.902;2023-02-23T10:17:19;2.20;;;2.07;;
7977;SDS011;4034;48.004;10.902;2023-02-23T10:22:47;2.73;;;2.03;;
7977;SDS011;4034;48.004;10.902;2023-02-23T10:25:16;2.47;;;2.37;;
7977;SDS011;4034;48.004;10.902;2023-02-23T10:27:46;3.87;;;2.40;;
7977;SDS011;4034;48.004;10.902;2023-02-23T10:35:19;2.27;;;2.17;;
7977;SDS011;4034;48.004;10.902;2023-02-23T10:37:46;2.03;;;1.90;;
7977;SDS011;4034;48.004;10.902;2023-02-23T10:40:19;2.40;;;2.17;;
7977;SDS011;4034;48.004;10.902;2023-02-23T10:42:47;2.33;;;2.20;;
7977;SDS011;4034;48.004;10.902;2023-02-23T10:45:14;5.00;;;2.10;;
7977;SDS011;4034;48.004;10.902;2023-02-23T10:47:47;5.13;;;2.17;;
7977;SDS011;4034;48.004;10.902;2023-02-23T10:50:14;6.73;;;1.90;;
7977;SDS011;4034;48.004;10.902;2023-02-23T10:52:42;2.27;;;2.00;;
7977;SDS011;4034;48.004;10.902;2023-02-23T10:55:31;2.63;;;2.43;;
7977;SDS011;4034;48.004;10.902;2023-02-23T10:57:59;3.07;;;2.30;;
7977;SDS011;4034;48.004;10.902;2023-02-23T11:03:34;4.00;;;2.00;;
7977;SDS011;4034;48.004;10.902;2023-02-23T11:06:01;2.50;;;2.23;;
7977;SDS011;4034;48.004;10.902;2023-02-23T11:08:31;2.10;;;2.00;;
7977;SDS011;4034;48.004;10.902;2023-02-23T11:16:00;2.10;;;2.00;;
7977;SDS011;4034;48.004;10.902;2023-02-23T11:18:28;3.93;;;3.13;;
7977;SDS011;4034;48.004;10.902;2023-02-23T11:20:54;3.37;;;2.80;;
7977;SDS011;4034;48.004;10.902;2023-02-23T11:23:22;2.47;;;2.27;;
7977;SDS011;4034;48.004;10.902;2023-02-23T11:25:50;7.57;;;2.37;;
7977;SDS011;4034;48.004;10.902;2023-02-23T11:31:14;2.37;;;2.27;;
7977;SDS011;4034;48.004;10.902;2023-02-23T11:33:40;2.13;;;1.90;;
7977;SDS011;4034;48.004;10.902;2023-02-23T11:36:14;2.47;;;2.27;;
7977;SDS011;4034;48.004;10.902;2023-02-23T11:38:41;3.27;;;2.30;;
7977;SDS011;4034;48.004;10.902;2023-02-23T11:41:42;2.27;;;2.10;;
7977;SDS011;4034;48.004;10.902;2023-02-23T11:44:01;2.33;;;2.13;;
7977;SDS011;4034;48.004;10.902;2023-02-23T11:46:28;2.10;;;2.00;;
7977;SDS011;4034;48.004;10.902;2023-02-23T11:53:54;4.40;;;2.20;;
7977;SDS011;4034;48.004;10.902;2023-02-23T11:56:20;2.90;;;2.13;;
7977;SDS011;4034;48.004;10.902;2023-02-23T12:01:17;3.10;;;1.80;;
7977;SDS011;4034;48.004;10.902;2023-02-23T12:03:52;2.30;;;2.20;;
7977;SDS011;4034;48.004;10.902;2023-02-23T12:06:32;3.37;;;3.10;;
7977;SDS011;4034;48.004;10.902;2023-02-23T12:09:11;4.70;;;2.13;;
7977;SDS011;4034;48.004;10.902;2023-02-23T12:11:45;2.50;;;2.30;;
7977;SDS011;4034;48.004;10.902;2023-02-23T12:14:17;2.50;;;2.37;;
7977;SDS011;4034;48.004;10.902;2023-02-23T12:16:46;2.60;;;2.50;;
7977;SDS011;4034;48.004;10.902;2023-02-23T12:24:44;2.90;;;1.67;;
7977;SDS011;4034;48.004;10.902;2023-02-23T12:27:20;3.67;;;1.90;;
7977;SDS011;4034;48.004;10.902;2023-02-23T12:32:36;2.97;;;1.83;;
7977;SDS011;4034;48.004;10.902;2023-02-23T12:37:40;2.03;;;1.90;;
7977;SDS011;4034;48.004;10.902;2023-02-23T12:40:15;5.20;;;1.87;;
7977;SDS011;4034;48.004;10.902;2023-02-23T12:42:46;3.33;;;1.90;;
7977;SDS011;4034;48.004;10.902;2023-02-23T12:45:17;3.13;;;2.60;;
7977;SDS011;4034;48.004;10.902;2023-02-23T12:50:23;2.37;;;2.17;;
7977;SDS011;4034;48.004;10.902;2023-02-23T12:52:53;2.53;;;1.73;;
7977;SDS011;4034;48.004;10.902;2023-02-23T12:55:35;1.83;;;1.73;;
7977;SDS011;4034;48.004;10.902;2023-02-23T12:58:19;1.83;;;1.67;;
7977;SDS011;4034;48.004;10.902;2023-02-23T13:00:50;2.90;;;2.17;;
7977;SDS011;4034;48.004;10.902;2023-02-23T13:05:47;2.43;;;2.23;;
7977;SDS011;4034;48.004;10.902;2023-02-23T13:28:54;3.03;;;1.83;;
7977;SDS011;4034;48.004;10.902;2023-02-23T13:31:33;2.37;;;2.13;;
7977;SDS011;4034;48.004;10.902;2023-02-23T13:34:00;4.33;;;2.23;;
7977;SDS011;4034;48.004;10.902;2023-02-23T13:36:27;2.03;;;1.70;;
7977;SDS011;4034;48.004;10.902;2023-02-23T13:41:40;3.60;;;2.00;;
7977;SDS011;4034;48.004;10.902;2023-02-23T13:46:42;2.60;;;2.03;;
7977;SDS011;4034;48.004;10.902;2023-02-23T13:56:42;2.20;;;2.00;;
7977;SDS011;4034;48.004;10.902;2023-02-23T13:59:14;3.00;;;2.03;;
7977;SDS011;4034;48.004;10.902;2023-02-23T14:01:44;5.17;;;2.20;;
7977;SDS011;4034;48.004;10.902;2023-02-23T14:06:48;3.60;;;1.93;;
7977;SDS011;4034;48.004;10.902;2023-02-23T14:09:19;3.20;;;2.23;;
7977;SDS011;4034;48.004;10.902;2023-02-23T14:14:54;3.40;;;2.40;;
7977;SDS011;4034;48.004;10.902;2023-02-23T14:22:24;11.23;;;2.87;;
7977;SDS011;4034;48.004;10.902;2023-02-23T14:27:42;5.67;;;3.27;;
7977;SDS011;4034;48.004;10.902;2023-02-23T14:32:38;4.23;;;3.00;;
7977;SDS011;4034;48.004;10.902;2023-02-23T14:35:08;3.73;;;3.13;;
7977;SDS011;4034;48.004;10.902;2023-02-23T14:37:54;2.87;;;2.60;;
7977;SDS011;4034;48.004;10.902;2023-02-23T14:40:28;4.87;;;2.90;;
7977;SDS011;4034;48.004;10.902;2023-02-23T14:43:18;3.37;;;2.53;;
7977;SDS011;4034;48.004;10.902;2023-02-23T14:45:49;5.30;;;3.03;;
7977;SDS011;4034;48.004;10.902;2023-02-23T14:48:18;5.33;;;4.30;;
7977;SDS011;4034;48.004;10.902;2023-02-23T14:50:47;3.83;;;3.30;;
7977;SDS011;4034;48.004;10.902;2023-02-23T14:53:18;5.13;;;2.80;;
7977;SDS011;4034;48.004;10.902;2023-02-23T14:55:45;2.90;;;2.70;;
7977;SDS011;4034;48.004;10.902;2023-02-23T14:58:26;3.27;;;2.97;;
7977;SDS011;4034;48.004;10.902;2023-02-23T15:00:52;6.50;;;4.50;;
7977;SDS011;4034;48.004;10.902;2023-02-23T15:03:18;6.63;;;4.50;;
7977;SDS011;4034;48.004;10.902;2023-02-23T15:05:49;5.77;;;3.40;;
7977;SDS011;4034;48.004;10.902;2023-02-23T15:08:20;5.83;;;3.20;;
7977;SDS011;4034;48.004;10.902;2023-02-23T15:10:51;4.67;;;3.17;;
7977;SDS011;4034;48.004;10.902;2023-02-23T15:13:25;4.60;;;3.40;;
7977;SDS011;4034;48.004;10.902;2023-02-23T15:15:52;3.17;;;2.97;;
7977;SDS011;4034;48.004;10.902;2023-02-23T15:18:20;7.30;;;3.80;;
7977;SDS011;4034;48.004;10.902;2023-02-23T15:20:47;7.13;;;3.67;;
7977;SDS011;4034;48.004;10.902;2023-02-23T15:23:13;4.13;;;3.50;;
7977;SDS011;4034;48.004;10.902;2023-02-23T15:25:41;5.03;;;3.73;;
7977;SDS011;4034;48.004;10.902;2023-02-23T15:28:22;3.53;;;3.23;;
7977;SDS011;4034;48.004;10.902;2023-02-23T15:30:49;3.13;;;2.70;;
7977;SDS011;4034;48.004;10.902;2023-02-23T15:33:16;3.47;;;3.17;;
7977;SDS011;4034;48.004;10.902;2023-02-23T15:38:27;5.77;;;3.77;;
7977;SDS011;4034;48.004;10.902;2023-02-23T15:40:56;3.13;;;2.93;;
7977;SDS011;4034;48.004;10.902;2023-02-23T15:43:23;4.13;;;3.30;;
7977;SDS011;4034;48.004;10.902;2023-02-23T15:45:53;4.03;;;3.50;;
7977;SDS011;4034;48.004;10.902;2023-02-23T15:48:21;4.83;;;3.67;;
7977;SDS011;4034;48.004;10.902;2023-02-23T15:50:51;9.40;;;4.37;;
7977;SDS011;4034;48.004;10.902;2023-02-23T15:55:53;2.83;;;2.67;;
7977;SDS011;4034;48.004;10.902;2023-02-23T16:00:49;7.63;;;3.40;;
7977;SDS011;4034;48.004;10.902;2023-02-23T16:03:27;4.53;;;3.63;;
7977;SDS011;4034;48.004;10.902;2023-02-23T16:05:56;10.67;;;8.83;;
7977;SDS011;4034;48.004;10.902;2023-02-23T16:08:24;5.47;;;3.33;;
7977;SDS011;4034;48.004;10.902;2023-02-23T16:10:54;3.60;;;3.33;;
7977;SDS011;4034;48.004;10.902;2023-02-23T16:13:25;4.50;;;3.83;;
7977;SDS011;4034;48.004;10.902;2023-02-23T16:15:52;6.33;;;4.30;;
7977;SDS011;4034;48.004;10.902;2023-02-23T16:18:35;6.33;;;5.30;;
7977;SDS011;4034;48.004;10.902;2023-02-23T16:21:02;4.77;;;3.63;;
7977;SDS011;4034;48.004;10.902;2023-02-23T16:23:30;8.87;;;3.53;;
7977;SDS011;4034;48.004;10.902;2023-02-23T16:26:00;3.83;;;3.10;;
7977;SDS011;4034;48.004;10.902;2023-02-23T16:28:30;5.97;;;3.83;;
7977;SDS011;4034;48.004;10.902;2023-02-23T16:30:58;3.57;;;3.27;;
7977;SDS011;4034;48.004;10.902;2023-02-23T16:33:26;3.63;;;3.20;;
7977;SDS011;4034;48.004;10.902;2023-02-23T16:36:13;6.47;;;3.00;;
7977;SDS011;4034;48.004;10.902;2023-02-23T16:38:40;3.90;;;3.03;;
7977;SDS011;4034;48.004;10.902;2023-02-23T16:41:40;3.93;;;2.70;;
7977;SDS011;4034;48.004;10.902;2023-02-23T16:44:00;3.87;;;3.57;;
7977;SDS011;4034;48.004;10.902;2023-02-23T16:49:19;10.53;;;7.83;;
7977;SDS011;4034;48.004;10.902;2023-02-23T16:51:47;7.73;;;6.60;;
7977;SDS011;4034;48.004;10.902;2023-02-23T16:54:13;9.87;;;6.10;;
7977;SDS011;4034;48.004;10.902;2023-02-23T16:56:39;7.90;;;5.53;;
7977;SDS011;4034;48.004;10.902;2023-02-23T16:59:05;8.00;;;5.07;;
7977;SDS011;4034;48.004;10.902;2023-02-23T17:01:33;6.90;;;6.10;;
7977;SDS011;4034;48.004;10.902;2023-02-23T17:04:00;9.30;;;6.40;;
7977;SDS011;4034;48.004;10.902;2023-02-23T17:06:26;9.70;;;6.27;;
7977;SDS011;4034;48.004;10.902;2023-02-23T17:08:52;7.00;;;5.80;;
7977;SDS011;4034;48.004;10.902;2023-02-23T17:11:18;6.97;;;5.53;;
7977;SDS011;4034;48.004;10.902;2023-02-23T17:13:45;9.90;;;4.90;;
7977;SDS011;4034;48.004;10.902;2023-02-23T17:16:12;9.10;;;4.10;;
7977;SDS011;4034;48.004;10.902;2023-02-23T17:18:45;6.53;;;4.27;;
7977;SDS011;4034;48.004;10.902;2023-02-23T17:21:17;7.03;;;5.53;;
7977;SDS011;4034;48.004;10.902;2023-02-23T17:23:48;8.73;;;4.20;;
7977;SDS011;4034;48.004;10.902;2023-02-23T17:26:18;4.93;;;3.80;;
7977;SDS011;4034;48.004;10.902;2023-02-23T17:28:44;5.73;;;3.27;;
7977;SDS011;4034;48.004;10.902;2023-02-23T17:31:11;5.80;;;3.60;;
7977;SDS011;4034;48.004;10.902;2023-02-23T17:33:37;5.37;;;3.37;;
7977;SDS011;4034;48.004;10.902;2023-02-23T17:36:05;4.47;;;3.03;;
7977;SDS011;4034;48.004;10.902;2023-02-23T17:38:31;7.27;;;4.93;;
7977;SDS011;4034;48.004;10.902;2023-02-23T17:40:58;7.00;;;4.20;;
7977;SDS011;4034;48.004;10.902;2023-02-23T17:43:24;6.67;;;3.93;;
7977;SDS011;4034;48.004;10.902;2023-02-23T17:45:51;8.50;;;6.50;;
7977;SDS011;4034;48.004;10.902;2023-02-23T17:48:18;6.43;;;4.83;;